AirNav   Everest Fuels
 
 502 users online  

47PN Bristol USAR Center Heliport
Bristol, Pennsylvania, USA

GOING TO BRISTOL?


FAA INFORMATION EFFECTIVE 16 JULY 2020

Location

FAA Identifier: 47PN
Lat/Long: 40-07-20.3960N 074-53-48.5970W
40-07.339933N 074-53.809950W
40.1223322,-74.8968325
(estimated)
Elevation: 45 ft. / 14 m (estimated)
Variation: 12W (1985)
From city: 2 miles S of BRISTOL, PA
Time zone: UTC -4 (UTC -5 during Standard Time)
Zip code: 19007

Heliport Operations

Heliport use: Private use. Permission required prior to landing
Activation date: 08/1980
Control tower: no
ARTCC: NEW YORK CENTER
FSS: WILLIAMSPORT FLIGHT SERVICE STATION
Attendance: UNATNDD
Wind indicator: no
Segmented circle: no

Heliport Communications

WX ASOS at PNE (6 nm SW): 121.15 (215-677-0146)
WX ASOS at TTN (10 nm N): 126.775 (609-538-8690)
WX ASOS at VAY (11 nm S): 119.325 (609-267-1176)
WX ASOS at DYL (16 nm NW): 118.875 (215-345-0392)
WX AWOS-3 at LOM (17 nm W): 118.925 (215-646-1068)

Nearby radio navigation aids

VOR radial/distance  VOR name  Freq  Var
ARDr186/7.9YARDLEY VOR/DME108.2010W
GXUr308/15.4MC GUIRE VORTAC110.6012W
RBVr265/19.0ROBBINSVILLE VORTAC113.8010W
CYNr321/28.2COYLE VORTAC113.4010W
SBJr204/28.5SOLBERG VOR/DME112.9010W
PTWr110/31.0POTTSTOWN VORTAC116.5009W
OODr043/34.7WOODSTOWN VORTAC112.8010W
VCNr015/35.2CEDAR LAKE VOR/DME115.2010W
COLr262/35.6COLTS NECK VOR/DME115.4011W
MXEr080/37.6MODENA VORTAC113.2009W

 
NDB name  Hdg/Dist  Freq  Var  ID
AMBLER103/17.827512WING .. -. --.
LAKEHURST291/26.239611WNEL -. . .-..

Heliport Services

Runway Information

Helipad H1

Dimensions: 150 x 80 ft. / 46 x 24 m
Surface: turf, in fair condition
Latitude: 40-07.339933N
Longitude: 074-53.809950W
Elevation: 45.0 ft.
Traffic pattern: leftleft
Markings: none, in fair condition

Heliport Ownership and Management from official FAA records

Ownership: Privately-owned
Owner: BRISTOL VETERANS USAR CENTER
2501 FORD ROAD
BRISTOL, PA 19007-6898
Phone 215-781-3784
Manager: THOMAS E. LYNCH
2501 FORD ROAD
BRISTOL, PA 19007-6898
Phone 215-781-3786
FACILITY MANAGER.

Additional Remarks

FOR CD CTC PHILADELPHIA APCH AT 800-354-9884.

Instrument Procedures

There are no published instrument procedures at 47PN.

Some nearby airports with instrument procedures:

KPNE - Northeast Philadelphia Airport (6 nm SW)
KTTN - Trenton Mercer Airport (10 nm N)
KVAY - South Jersey Regional Airport (11 nm S)
N14 - Flying W Airport (12 nm S)
N87 - Trenton-Robbinsville Airport (15 nm E)
KWRI - McGuire Field (Joint Base Mc Guire Dix Lakehurst) Airport (15 nm SE)
KDYL - Doylestown Airport (16 nm NW)
KLOM - Wings Field Airport (17 nm W)
39N - Princeton Airport (20 nm NE)
 
Loc | Ops | Rwys | IFR | FBO | Links
Com | Nav | Svcs | Stats | Notes
Area around 47PN (Bristol USAR Center Heliport)
 
Road maps at: MapQuest Bing Google
 
Aerial photo
No photo
 
Sectional chart

 
Airport distance calculator
Flying to Bristol USAR Center Heliport? Find the distance to fly.

From to 47PN

Sunrise and sunset
Times for 13-Aug-2020
 Local
(UTC-4)
 Zulu
(UTC)
Morning civil twilight05:4209:42
Sunrise06:1110:11
Sunset19:5823:58
Evening civil twilight20:2700:27

Current date and time
Zulu (UTC)  13-Aug-2020 06:07:27
Local (UTC-4)  13-Aug-2020 02:07:27
 
METAR
KPNE 
6nm SW 
130554Z AUTO 00000KT 10SM CLR 23/22 A3007 RMK AO2 SLP182 T02330222 10250 20222 50000
KTTN 
10nm N 
ASOS 133.70 609-538-8690
130553Z AUTO 22003KT 9SM CLR 22/22 A3006 RMK AO2 SLP170 T02220217 10256 20222 58001
KVAY 
12nm S 
ASOS 119.325 609-267-1176
130554Z AUTO 00000KT 5SM BR CLR 23/23 A3006 RMK AO2 SLP178 T02280228 10244 20222 50000 $
KWRI 
16nm SE 
130556Z 00000KT 2SM BR CLR 22/22 A3006 RMK AO2A SLP178 T02160216 10237 20216 50001 CHINO RWY24 $
KDYL 
16nm NW 
130554Z AUTO 00000KT 10SM CLR 24/21 A3007 RMK AO2 SLP175 T02390211 10256 20233 50000
KLOM 
17nm W 
130555Z AUTO 00000KT 7SM CLR 22/22 A3008 RMK AO2 P0001 T02190218 10233 20214 60001
TAF
KPNE 
6nm SW 
130521Z 1306/1406 VRB03KT P6SM SCT025 TEMPO 1309/1313 3SM BR OVC008 FM131300 VRB03KT P6SM BKN025 TEMPO 1313/1317 3SM SHRA BR OVC008 FM131700 22004KT P6SM BKN035 FM132000 VRB03KT P6SM VCTS BKN035CB FM140000 VRB03KT P6SM SCT045
KTTN 
10nm N 
130521Z 1306/1406 VRB03KT P6SM SCT025 TEMPO 1309/1313 3SM BR OVC010 FM131300 VRB03KT P6SM BKN025 TEMPO 1313/1317 3SM SHRA BR OVC010 FM131700 22004KT P6SM BKN035 FM132000 VRB03KT P6SM VCTS BKN035CB FM140000 VRB03KT P6SM SCT045
KWRI 
16nm SE 
130200Z 1302/1408 VRB03KT 9999 SCT180 BKN250 QNH3006INS BECMG 1305/1306 VRB03KT 4800 BR SCT005 QNH3003INS BECMG 1309/1310 VRB02KT 2400 BR BKN004 QNH3003INS BECMG 1312/1313 06004KT 9999 NSW BKN020 QNH3007INS BECMG 1315/1316 07005KT 8000 -SHRA VCTS BKN035CB QNH3007INS TEMPO 1316/1321 4800 TSRA BKN025CB BECMG 1321/1322 08005KT 9999 NSW BKN040 OVC080 QNH3005INS BECMG 1402/1403 09003KT 6000 BR BKN015 OVC030 QNH3010INS TX28/1319Z TN22/1310Z
NOTAMs
Click for the latest NOTAMs
NOTAMs are issued by the DoD/FAA and will open in a separate window not controlled by AirNav.

 

 
 

Would you like to see your business listed on this page?

 If your business provides an interesting product or service to pilots, flight crews, aircraft, or users of the Bristol USAR Center Heliport, you should consider listing it here.  To start the listing process, click on the button below
 
Add a business
 

Other Pages about Bristol USAR Center Heliport

Update a link
 
Copyright © AirNav, LLC. All rights reserved. Privacy Policy  Contact